Lake Clark National Park, AK

1:15 PM AKST on December 20, 2014 (GMT -0900)
Sparrevohn | Change Station
CLOSE
Current Station
Airport
Location: Sparrevohn,
Elevation: 1588 ft
Nearby Weather Stations

Elev 1588 ft 61.10 °N, 155.57 °W | Updated 20 minutes ago

Clear
Clear
1 °F
Feels Like 1 °F
N
0
Wind Variable Wind from North

Today
High -- | Low -- °F
--% Chance of Precip.
Yesterday
High -- | Low -- °F
Precip. -- in
10:23 AM 4:08 PM
Waning Crescent, 2% visible
Pressure 29.05 in
Visibility 10.0 miles
Clouds Clear
Dew Point -3 °F
Humidity 85%
Rainfall 0.00 in
Snow Depth Not available.
UV 0 out of 12
Pollen Not available.
Air Quality Not available.
Flu Activity Not available.
METAR PASV 202155Z AUTO 00000KT 10SM CLR M17/M19 A2890 RMK AO2 SLP837 T11721192

More Conditions Fewer Conditions

Pressure 29.05 in
Visibility 10.0 miles
Clouds Clear
Dew Point -3 °F
Humidity 85%
Rainfall 0.00 in
Snow Depth Not available.
UV 0 out of 12
Pollen Not available.
Air Quality Not available.
Flu Activity Not available.
METAR PASV 202155Z AUTO 00000KT 10SM CLR M17/M19 A2890 RMK AO2 SLP837 T11721192

More Conditions Fewer Conditions

10-Day Weather Forecast

Almanac

Astronomy

Dec. 20, 2014 Rise Set
Actual Time
Civil Twilight
Nautical Twilight
Astronomical Twilight
Moon
Length of Visible Light
Length of Day
Tomorrow will be .
, % of the Moon is Illuminated

Today's Extremes

State Highs State Lows

Community

WunderPhotos

Upload Photos

1,779,291 photos uploaded!

WunderBlogs® & News

Nearby

Air Quality

  Air Quality AQ Index Pollutant
Not available.

Snow Depth

Station Depth Elevation

Earthquake Activity

City Distance Mag. Time & Date
Minimum magnitude displayed is 2.5.

Coastal Water Temperatures

Place Temperature

Nearby Weather Stations